Archival Weather

Republic

Farmingdale, New York (KFRG)

Report from: Sunday, January 28, 2024 3:53 AM EST
Current time: Friday, June 21, 2024 9:15 PM EDT

Current weather – Weather history – Daily summaries
Weather forecast

Present weatherMist
Temperature4.4°C (39.9°F)
Wind chill1.1°C (33.9°F)
Dew point3.3°C (37.9°F)
Winds 8 kts (4.1 m/s, 9.2 mph) East-Northeast (70°)
Visibility6 mi. (9.7 km)
Clouds Few clouds 700 ft. (213 m)
Few clouds 1,400 ft. (427 m)
Ceiling: Overcast 6,500 ft. (1,981 m)
Altimeter30.04 in.Hg (1017 mB)
Precipitiation0.07 in. (2 mm)
Precip last 3 hours0.10 in. (3 mm)
Relative humidity93 %
Density altitude-1,303 ft. (-397 m)
Sea-level pressure101.7 kPa (1017 mB, 30.04 in.Hg)
Remarks Fully automated report
Automated weather observing station without precipitation discriminator
Pressure falling more quickly
Flight conditions Visual Meteorological Conditions
Raw dataKFRG 280853Z AUTO 07008KT 6SM BR FEW007 FEW014 OVC065 04/03 A3004 RMK AO1 SLP172 P0007 60010 T00440033 58039
An error has occurred. This application may no longer respond until reloaded. Reload 🗙